Airfield :
LOGIN :

Register | Disclaimer

   EN    FR    IT 

 










Legend :    VFR   Marginal VFR   IFR   Intensive IFR   Very Intensive IFR
Visi :
Ceiling :
>= 8 km
>= 3000ft
5 to 8 km
1000 to 3000 ft
1500m to 5 km
500 to 1000 ft
800 to 1500m
200 to 500 ft
< 800m
< 200 ft
Symbols :   Thunderstorms  Fog  Heavy snow  Heavy precipitations  Wind > 20 kt
SIGMETs :     Misc.  Thunderstorms  Icing  Turbulence  Mountain Waves  Volcanic Ashes






- Airport Elevation : 30 ft
- IATA code : CFN


EIDL - Donegal

CURRENT METAR :
  • 191900Z 19013KT 9999 -RA SCT027 16/11 Q1007

EXPIRED METARs :
  • 191830Z 19014KT 9999 SCT027 16/10 Q1007
  • 191800Z 18015KT 9999 BKN026 16/10 Q1007
  • 191730Z 18016KT 9999 OVC024 15/10 Q1007
  • 191600Z 19014KT 9999 -RA OVC031 16/13 Q1007
  • 191530Z 19016KT 9999 -RA OVC031 16/12 Q1008

TAF TAF EIDL
Valid from the 19 at 18:00 until the 20 at 03:00 UTC


191700Z 1918/2003 19015KT 9999 -RA BKN030
PROB40
TEMPO 1918/1921 RA BKN014



MET'MAP, your aeronautical weather chart ! - Copyright ORBIFLY December 2007 - Disclaimer

ORBIFLY MET'MAP TEAM :

Programming & Development : Alexandra Zaïnal
Original concept : Baudouin d'Aumeries
Technical & hardware support : Manuel Goepfert
Assistance : Marc-Olivier Méhu




SOURCES & CREDITS :

   NOAA